sensor_id;sensor_type;location;lat;lon;timestamp;temperature;humidity
10030;DHT22;5055;52.054;8.524;2024-01-07T00:01:55;0.60;97.00
10030;DHT22;5055;52.054;8.524;2024-01-07T00:04:23;0.60;97.00
10030;DHT22;5055;52.054;8.524;2024-01-07T00:06:52;0.60;97.00
10030;DHT22;5055;52.054;8.524;2024-01-07T00:09:20;0.60;97.00
10030;DHT22;5055;52.054;8.524;2024-01-07T00:11:48;0.60;97.00
10030;DHT22;5055;52.054;8.524;2024-01-07T00:14:17;0.60;97.00
10030;DHT22;5055;52.054;8.524;2024-01-07T00:16:47;0.60;97.00
10030;DHT22;5055;52.054;8.524;2024-01-07T00:19:14;0.60;97.00
10030;DHT22;5055;52.054;8.524;2024-01-07T00:21:43;0.60;97.00
10030;DHT22;5055;52.054;8.524;2024-01-07T00:24:11;0.50;97.00
10030;DHT22;5055;52.054;8.524;2024-01-07T00:26:39;0.50;97.00
10030;DHT22;5055;52.054;8.524;2024-01-07T00:29:07;0.50;97.00
10030;DHT22;5055;52.054;8.524;2024-01-07T00:31:35;0.50;97.00
10030;DHT22;5055;52.054;8.524;2024-01-07T00:34:05;0.50;97.00
10030;DHT22;5055;52.054;8.524;2024-01-07T00:36:33;0.40;97.00
10030;DHT22;5055;52.054;8.524;2024-01-07T00:39:01;0.40;97.00
10030;DHT22;5055;52.054;8.524;2024-01-07T00:41:29;0.40;97.00
10030;DHT22;5055;52.054;8.524;2024-01-07T00:43:58;0.40;97.00
10030;DHT22;5055;52.054;8.524;2024-01-07T00:46:26;0.40;97.00
10030;DHT22;5055;52.054;8.524;2024-01-07T00:48:54;0.40;97.00
10030;DHT22;5055;52.054;8.524;2024-01-07T00:51:23;0.40;97.00
10030;DHT22;5055;52.054;8.524;2024-01-07T00:53:51;0.40;97.00
10030;DHT22;5055;52.054;8.524;2024-01-07T00:56:19;0.40;97.00
10030;DHT22;5055;52.054;8.524;2024-01-07T00:58:47;0.40;97.00
10030;DHT22;5055;52.054;8.524;2024-01-07T01:01:15;0.40;97.00
10030;DHT22;5055;52.054;8.524;2024-01-07T01:03:43;0.40;97.00
10030;DHT22;5055;52.054;8.524;2024-01-07T01:06:12;0.40;97.00
10030;DHT22;5055;52.054;8.524;2024-01-07T01:08:41;0.40;97.00
10030;DHT22;5055;52.054;8.524;2024-01-07T01:11:10;0.40;97.00
10030;DHT22;5055;52.054;8.524;2024-01-07T01:13:38;0.40;97.00
10030;DHT22;5055;52.054;8.524;2024-01-07T01:16:06;0.40;97.00
10030;DHT22;5055;52.054;8.524;2024-01-07T01:18:35;0.40;97.00
10030;DHT22;5055;52.054;8.524;2024-01-07T01:21:04;0.40;97.00
10030;DHT22;5055;52.054;8.524;2024-01-07T01:23:32;0.40;97.00
10030;DHT22;5055;52.054;8.524;2024-01-07T01:26:02;0.40;97.00
10030;DHT22;5055;52.054;8.524;2024-01-07T01:28:30;0.40;97.00
10030;DHT22;5055;52.054;8.524;2024-01-07T01:30:58;0.40;97.00
10030;DHT22;5055;52.054;8.524;2024-01-07T01:33:27;0.40;97.00
10030;DHT22;5055;52.054;8.524;2024-01-07T01:35:55;0.40;97.00
10030;DHT22;5055;52.054;8.524;2024-01-07T01:38:23;0.40;97.00
10030;DHT22;5055;52.054;8.524;2024-01-07T01:40:52;0.40;97.00
10030;DHT22;5055;52.054;8.524;2024-01-07T01:43:25;0.40;97.00
10030;DHT22;5055;52.054;8.524;2024-01-07T01:45:54;0.40;97.00
10030;DHT22;5055;52.054;8.524;2024-01-07T01:48:22;0.40;97.00
10030;DHT22;5055;52.054;8.524;2024-01-07T01:50:53;0.40;97.00
10030;DHT22;5055;52.054;8.524;2024-01-07T01:53:25;0.40;97.00
10030;DHT22;5055;52.054;8.524;2024-01-07T01:55:56;0.40;97.00
10030;DHT22;5055;52.054;8.524;2024-01-07T01:58:26;0.40;97.00
10030;DHT22;5055;52.054;8.524;2024-01-07T02:00:56;0.40;97.00
10030;DHT22;5055;52.054;8.524;2024-01-07T02:03:24;0.40;97.00
10030;DHT22;5055;52.054;8.524;2024-01-07T02:05:53;0.40;97.00
10030;DHT22;5055;52.054;8.524;2024-01-07T02:08:21;0.40;97.00
10030;DHT22;5055;52.054;8.524;2024-01-07T02:10:50;0.40;97.00
10030;DHT22;5055;52.054;8.524;2024-01-07T02:13:18;0.40;97.00
10030;DHT22;5055;52.054;8.524;2024-01-07T02:15:48;0.40;97.00
10030;DHT22;5055;52.054;8.524;2024-01-07T02:18:16;0.40;97.00
10030;DHT22;5055;52.054;8.524;2024-01-07T02:20:44;0.40;97.00
10030;DHT22;5055;52.054;8.524;2024-01-07T02:23:13;0.40;97.00
10030;DHT22;5055;52.054;8.524;2024-01-07T02:25:42;0.30;97.00
10030;DHT22;5055;52.054;8.524;2024-01-07T02:28:10;0.40;97.00
10030;DHT22;5055;52.054;8.524;2024-01-07T02:30:39;0.30;97.00
10030;DHT22;5055;52.054;8.524;2024-01-07T02:33:07;0.30;97.00
10030;DHT22;5055;52.054;8.524;2024-01-07T02:35:35;0.30;97.00
10030;DHT22;5055;52.054;8.524;2024-01-07T02:38:03;0.30;97.00
10030;DHT22;5055;52.054;8.524;2024-01-07T02:40:32;0.30;97.00
10030;DHT22;5055;52.054;8.524;2024-01-07T02:43:01;0.30;97.00
10030;DHT22;5055;52.054;8.524;2024-01-07T02:45:29;0.30;97.00
10030;DHT22;5055;52.054;8.524;2024-01-07T02:47:58;0.30;97.00
10030;DHT22;5055;52.054;8.524;2024-01-07T02:50:26;0.30;97.00
10030;DHT22;5055;52.054;8.524;2024-01-07T02:52:54;0.30;97.00
10030;DHT22;5055;52.054;8.524;2024-01-07T02:55:22;0.30;97.00
10030;DHT22;5055;52.054;8.524;2024-01-07T02:57:50;0.30;97.00
10030;DHT22;5055;52.054;8.524;2024-01-07T03:00:20;0.30;97.00
10030;DHT22;5055;52.054;8.524;2024-01-07T03:02:49;0.30;97.00
10030;DHT22;5055;52.054;8.524;2024-01-07T03:05:17;0.30;97.00
10030;DHT22;5055;52.054;8.524;2024-01-07T03:07:46;0.30;97.00
10030;DHT22;5055;52.054;8.524;2024-01-07T03:10:14;0.20;97.00
10030;DHT22;5055;52.054;8.524;2024-01-07T03:12:43;0.20;97.00
10030;DHT22;5055;52.054;8.524;2024-01-07T03:15:11;0.20;97.00
10030;DHT22;5055;52.054;8.524;2024-01-07T03:17:40;0.30;97.00
10030;DHT22;5055;52.054;8.524;2024-01-07T03:20:11;0.20;97.00
10030;DHT22;5055;52.054;8.524;2024-01-07T03:22:39;0.20;97.00
10030;DHT22;5055;52.054;8.524;2024-01-07T03:25:07;0.20;97.00
10030;DHT22;5055;52.054;8.524;2024-01-07T03:27:35;0.20;97.00
10030;DHT22;5055;52.054;8.524;2024-01-07T03:30:05;0.20;97.00
10030;DHT22;5055;52.054;8.524;2024-01-07T03:32:33;0.20;97.00
10030;DHT22;5055;52.054;8.524;2024-01-07T03:35:03;0.20;97.00
10030;DHT22;5055;52.054;8.524;2024-01-07T03:37:32;0.20;97.00
10030;DHT22;5055;52.054;8.524;2024-01-07T03:40:00;0.20;97.00
10030;DHT22;5055;52.054;8.524;2024-01-07T03:42:28;0.20;97.00
10030;DHT22;5055;52.054;8.524;2024-01-07T03:44:56;0.20;97.00
10030;DHT22;5055;52.054;8.524;2024-01-07T03:47:25;0.20;97.00
10030;DHT22;5055;52.054;8.524;2024-01-07T03:49:53;0.10;97.00
10030;DHT22;5055;52.054;8.524;2024-01-07T03:52:22;0.10;97.00
10030;DHT22;5055;52.054;8.524;2024-01-07T03:54:50;0.10;97.00
10030;DHT22;5055;52.054;8.524;2024-01-07T03:57:18;0.10;97.00
10030;DHT22;5055;52.054;8.524;2024-01-07T03:59:46;0.10;97.00
10030;DHT22;5055;52.054;8.524;2024-01-07T04:02:15;0.10;97.00
10030;DHT22;5055;52.054;8.524;2024-01-07T04:04:43;0.00;97.00
10030;DHT22;5055;52.054;8.524;2024-01-07T04:07:11;0.00;97.00
10030;DHT22;5055;52.054;8.524;2024-01-07T04:09:42;0.00;97.00
10030;DHT22;5055;52.054;8.524;2024-01-07T04:12:11;-0.10;97.00
10030;DHT22;5055;52.054;8.524;2024-01-07T04:14:39;-0.10;97.00
10030;DHT22;5055;52.054;8.524;2024-01-07T04:17:08;-0.10;97.00
10030;DHT22;5055;52.054;8.524;2024-01-07T04:19:36;-0.20;97.00
10030;DHT22;5055;52.054;8.524;2024-01-07T04:22:05;-0.20;97.00
10030;DHT22;5055;52.054;8.524;2024-01-07T04:24:34;-0.20;97.00
10030;DHT22;5055;52.054;8.524;2024-01-07T04:27:04;-0.20;97.00
10030;DHT22;5055;52.054;8.524;2024-01-07T04:29:32;-0.20;97.00
10030;DHT22;5055;52.054;8.524;2024-01-07T04:32:00;-0.30;97.00
10030;DHT22;5055;52.054;8.524;2024-01-07T04:34:28;-0.30;97.00
10030;DHT22;5055;52.054;8.524;2024-01-07T04:36:57;-0.30;97.00
10030;DHT22;5055;52.054;8.524;2024-01-07T04:39:26;-0.40;97.00
10030;DHT22;5055;52.054;8.524;2024-01-07T04:41:54;-0.40;97.00
10030;DHT22;5055;52.054;8.524;2024-01-07T04:44:23;-0.40;97.00
10030;DHT22;5055;52.054;8.524;2024-01-07T04:46:52;-0.40;97.00
10030;DHT22;5055;52.054;8.524;2024-01-07T04:49:20;-0.40;97.00
10030;DHT22;5055;52.054;8.524;2024-01-07T04:51:48;-0.40;97.00
10030;DHT22;5055;52.054;8.524;2024-01-07T04:54:16;-0.40;97.00
10030;DHT22;5055;52.054;8.524;2024-01-07T04:56:45;-0.40;97.00
10030;DHT22;5055;52.054;8.524;2024-01-07T04:59:13;-0.40;97.00
10030;DHT22;5055;52.054;8.524;2024-01-07T05:01:43;-0.40;97.00
10030;DHT22;5055;52.054;8.524;2024-01-07T05:04:11;-0.40;97.00
10030;DHT22;5055;52.054;8.524;2024-01-07T05:06:40;-0.40;97.00
10030;DHT22;5055;52.054;8.524;2024-01-07T05:09:08;-0.50;97.00
10030;DHT22;5055;52.054;8.524;2024-01-07T05:11:39;-0.40;97.00
10030;DHT22;5055;52.054;8.524;2024-01-07T05:14:07;-0.50;97.00
10030;DHT22;5055;52.054;8.524;2024-01-07T05:16:36;-0.40;97.00
10030;DHT22;5055;52.054;8.524;2024-01-07T05:19:05;-0.40;97.00
10030;DHT22;5055;52.054;8.524;2024-01-07T05:21:33;-0.40;97.00
10030;DHT22;5055;52.054;8.524;2024-01-07T05:24:01;-0.50;97.00
10030;DHT22;5055;52.054;8.524;2024-01-07T05:26:30;-0.50;97.00
10030;DHT22;5055;52.054;8.524;2024-01-07T05:28:58;-0.50;97.00
10030;DHT22;5055;52.054;8.524;2024-01-07T05:31:26;-0.40;97.00
10030;DHT22;5055;52.054;8.524;2024-01-07T05:33:54;-0.40;97.00
10030;DHT22;5055;52.054;8.524;2024-01-07T05:36:24;-0.40;97.00
10030;DHT22;5055;52.054;8.524;2024-01-07T05:38:52;-0.40;97.00
10030;DHT22;5055;52.054;8.524;2024-01-07T05:41:21;-0.50;97.00
10030;DHT22;5055;52.054;8.524;2024-01-07T05:43:49;-0.50;97.00
10030;DHT22;5055;52.054;8.524;2024-01-07T05:46:18;-0.50;97.00
10030;DHT22;5055;52.054;8.524;2024-01-07T05:48:47;-0.50;97.00
10030;DHT22;5055;52.054;8.524;2024-01-07T05:51:17;-0.50;97.00
10030;DHT22;5055;52.054;8.524;2024-01-07T05:53:47;-0.50;97.00
10030;DHT22;5055;52.054;8.524;2024-01-07T05:56:15;-0.50;97.00
10030;DHT22;5055;52.054;8.524;2024-01-07T05:58:43;-0.50;97.00
10030;DHT22;5055;52.054;8.524;2024-01-07T06:01:18;-0.50;97.00
10030;DHT22;5055;52.054;8.524;2024-01-07T06:03:47;-0.50;97.00
10030;DHT22;5055;52.054;8.524;2024-01-07T06:06:15;-0.50;97.00
10030;DHT22;5055;52.054;8.524;2024-01-07T06:08:45;-0.50;97.00
10030;DHT22;5055;52.054;8.524;2024-01-07T06:11:13;-0.60;97.00
10030;DHT22;5055;52.054;8.524;2024-01-07T06:13:45;-0.60;97.00
10030;DHT22;5055;52.054;8.524;2024-01-07T06:16:13;-0.60;97.00
10030;DHT22;5055;52.054;8.524;2024-01-07T06:18:41;-0.60;97.00
10030;DHT22;5055;52.054;8.524;2024-01-07T06:21:10;-0.70;97.00
10030;DHT22;5055;52.054;8.524;2024-01-07T06:23:38;-0.70;97.00
10030;DHT22;5055;52.054;8.524;2024-01-07T06:26:08;-0.70;97.00
10030;DHT22;5055;52.054;8.524;2024-01-07T06:28:36;-0.80;97.00
10030;DHT22;5055;52.054;8.524;2024-01-07T06:31:04;-0.80;97.00
10030;DHT22;5055;52.054;8.524;2024-01-07T06:33:33;-0.80;97.00
10030;DHT22;5055;52.054;8.524;2024-01-07T06:36:01;-0.80;97.00
10030;DHT22;5055;52.054;8.524;2024-01-07T06:38:29;-0.80;97.00
10030;DHT22;5055;52.054;8.524;2024-01-07T06:40:58;-0.80;97.00
10030;DHT22;5055;52.054;8.524;2024-01-07T06:43:30;-0.80;97.00
10030;DHT22;5055;52.054;8.524;2024-01-07T06:45:59;-0.80;97.00
10030;DHT22;5055;52.054;8.524;2024-01-07T06:48:27;-0.80;97.00
10030;DHT22;5055;52.054;8.524;2024-01-07T06:50:56;-0.90;97.00
10030;DHT22;5055;52.054;8.524;2024-01-07T06:53:25;-0.80;97.00
10030;DHT22;5055;52.054;8.524;2024-01-07T06:55:53;-0.80;97.00
10030;DHT22;5055;52.054;8.524;2024-01-07T06:58:21;-0.80;97.00
10030;DHT22;5055;52.054;8.524;2024-01-07T07:00:51;-0.80;97.00
10030;DHT22;5055;52.054;8.524;2024-01-07T07:03:20;-0.90;97.00
10030;DHT22;5055;52.054;8.524;2024-01-07T07:05:48;-0.90;97.00
10030;DHT22;5055;52.054;8.524;2024-01-07T07:08:16;-0.90;97.00
10030;DHT22;5055;52.054;8.524;2024-01-07T07:10:45;-0.90;97.00
10030;DHT22;5055;52.054;8.524;2024-01-07T07:13:13;-0.90;97.00
10030;DHT22;5055;52.054;8.524;2024-01-07T07:15:42;-0.90;97.00
10030;DHT22;5055;52.054;8.524;2024-01-07T07:18:11;-0.90;97.00
10030;DHT22;5055;52.054;8.524;2024-01-07T07:20:40;-0.90;97.00
10030;DHT22;5055;52.054;8.524;2024-01-07T07:23:08;-1.00;97.00
10030;DHT22;5055;52.054;8.524;2024-01-07T07:25:37;-0.90;97.00
10030;DHT22;5055;52.054;8.524;2024-01-07T07:28:05;-0.90;97.00
10030;DHT22;5055;52.054;8.524;2024-01-07T07:30:34;-1.00;97.00
10030;DHT22;5055;52.054;8.524;2024-01-07T07:33:02;-1.00;97.00
10030;DHT22;5055;52.054;8.524;2024-01-07T07:35:32;-0.90;97.00
10030;DHT22;5055;52.054;8.524;2024-01-07T07:38:00;-0.90;97.00
10030;DHT22;5055;52.054;8.524;2024-01-07T07:40:29;-1.00;97.00
10030;DHT22;5055;52.054;8.524;2024-01-07T07:42:57;-1.00;97.00
10030;DHT22;5055;52.054;8.524;2024-01-07T07:45:26;-0.90;97.00
10030;DHT22;5055;52.054;8.524;2024-01-07T07:47:54;-0.90;97.00
10030;DHT22;5055;52.054;8.524;2024-01-07T07:50:23;-0.90;97.00
10030;DHT22;5055;52.054;8.524;2024-01-07T07:52:52;-0.90;97.00
10030;DHT22;5055;52.054;8.524;2024-01-07T07:55:21;-0.90;97.00
10030;DHT22;5055;52.054;8.524;2024-01-07T07:57:49;-0.90;97.00
10030;DHT22;5055;52.054;8.524;2024-01-07T08:00:19;-0.90;97.00
10030;DHT22;5055;52.054;8.524;2024-01-07T08:02:47;-0.90;97.00
10030;DHT22;5055;52.054;8.524;2024-01-07T08:05:16;-0.90;97.00
10030;DHT22;5055;52.054;8.524;2024-01-07T08:07:45;-0.90;97.00
10030;DHT22;5055;52.054;8.524;2024-01-07T08:10:15;-0.80;97.00
10030;DHT22;5055;52.054;8.524;2024-01-07T08:12:44;-0.80;97.00
10030;DHT22;5055;52.054;8.524;2024-01-07T08:15:12;-0.80;97.00
10030;DHT22;5055;52.054;8.524;2024-01-07T08:17:41;-0.80;97.00
10030;DHT22;5055;52.054;8.524;2024-01-07T08:20:12;-0.90;97.00
10030;DHT22;5055;52.054;8.524;2024-01-07T08:22:40;-0.90;97.00
10030;DHT22;5055;52.054;8.524;2024-01-07T08:25:09;-0.90;97.00
10030;DHT22;5055;52.054;8.524;2024-01-07T08:27:40;-0.90;97.00
10030;DHT22;5055;52.054;8.524;2024-01-07T08:30:09;-0.90;97.00
10030;DHT22;5055;52.054;8.524;2024-01-07T08:32:39;-0.90;97.00
10030;DHT22;5055;52.054;8.524;2024-01-07T08:35:08;-0.90;97.00
10030;DHT22;5055;52.054;8.524;2024-01-07T08:37:37;-0.90;97.00
10030;DHT22;5055;52.054;8.524;2024-01-07T08:40:06;-0.90;97.00
10030;DHT22;5055;52.054;8.524;2024-01-07T08:42:36;-0.90;97.00
10030;DHT22;5055;52.054;8.524;2024-01-07T08:45:08;-0.90;97.00
10030;DHT22;5055;52.054;8.524;2024-01-07T08:47:36;-0.90;97.00
10030;DHT22;5055;52.054;8.524;2024-01-07T08:50:10;-0.80;97.00
10030;DHT22;5055;52.054;8.524;2024-01-07T08:52:39;-0.80;97.00
10030;DHT22;5055;52.054;8.524;2024-01-07T08:55:08;-0.80;97.00
10030;DHT22;5055;52.054;8.524;2024-01-07T08:57:37;-0.80;97.00
10030;DHT22;5055;52.054;8.524;2024-01-07T09:00:08;-0.80;97.00
10030;DHT22;5055;52.054;8.524;2024-01-07T09:02:37;-0.80;97.00
10030;DHT22;5055;52.054;8.524;2024-01-07T09:05:10;-0.70;97.00
10030;DHT22;5055;52.054;8.524;2024-01-07T09:07:39;-0.80;97.00
10030;DHT22;5055;52.054;8.524;2024-01-07T09:10:08;-0.80;97.00
10030;DHT22;5055;52.054;8.524;2024-01-07T09:12:39;-0.80;97.00
10030;DHT22;5055;52.054;8.524;2024-01-07T09:15:09;-0.80;97.00
10030;DHT22;5055;52.054;8.524;2024-01-07T09:17:38;-0.80;97.00
10030;DHT22;5055;52.054;8.524;2024-01-07T09:20:08;-0.80;97.00
10030;DHT22;5055;52.054;8.524;2024-01-07T09:22:37;-0.80;97.00
10030;DHT22;5055;52.054;8.524;2024-01-07T09:25:06;-0.80;97.00
10030;DHT22;5055;52.054;8.524;2024-01-07T09:27:35;-0.80;97.00
10030;DHT22;5055;52.054;8.524;2024-01-07T09:30:04;-0.80;97.00
10030;DHT22;5055;52.054;8.524;2024-01-07T09:32:35;-0.80;97.00
10030;DHT22;5055;52.054;8.524;2024-01-07T09:35:05;-0.80;97.00
10030;DHT22;5055;52.054;8.524;2024-01-07T09:37:34;-0.80;97.00
10030;DHT22;5055;52.054;8.524;2024-01-07T09:40:04;-0.70;97.00
10030;DHT22;5055;52.054;8.524;2024-01-07T09:42:34;-0.70;97.00
10030;DHT22;5055;52.054;8.524;2024-01-07T09:45:04;-0.80;97.00
10030;DHT22;5055;52.054;8.524;2024-01-07T09:47:33;-0.80;97.00
10030;DHT22;5055;52.054;8.524;2024-01-07T09:50:05;-0.80;97.00
10030;DHT22;5055;52.054;8.524;2024-01-07T09:52:34;-0.80;97.00
10030;DHT22;5055;52.054;8.524;2024-01-07T09:55:03;-0.80;97.00
10030;DHT22;5055;52.054;8.524;2024-01-07T09:57:34;-0.80;97.00
10030;DHT22;5055;52.054;8.524;2024-01-07T10:00:03;-0.80;97.00
10030;DHT22;5055;52.054;8.524;2024-01-07T10:02:32;-0.80;97.00
10030;DHT22;5055;52.054;8.524;2024-01-07T10:05:05;-0.80;97.00
10030;DHT22;5055;52.054;8.524;2024-01-07T10:07:34;-0.80;97.00
10030;DHT22;5055;52.054;8.524;2024-01-07T10:10:12;-0.70;97.00
10030;DHT22;5055;52.054;8.524;2024-01-07T10:12:44;-0.80;97.00
10030;DHT22;5055;52.054;8.524;2024-01-07T10:15:14;-0.80;97.00
10030;DHT22;5055;52.054;8.524;2024-01-07T10:17:44;-0.70;97.00
10030;DHT22;5055;52.054;8.524;2024-01-07T10:20:17;-0.70;97.00
10030;DHT22;5055;52.054;8.524;2024-01-07T10:22:50;-0.70;97.00
10030;DHT22;5055;52.054;8.524;2024-01-07T10:25:19;-0.60;97.00
10030;DHT22;5055;52.054;8.524;2024-01-07T10:27:48;-0.60;97.00
10030;DHT22;5055;52.054;8.524;2024-01-07T10:30:17;-0.60;97.00
10030;DHT22;5055;52.054;8.524;2024-01-07T10:32:46;-0.60;97.00
10030;DHT22;5055;52.054;8.524;2024-01-07T10:35:19;-0.50;97.00
10030;DHT22;5055;52.054;8.524;2024-01-07T10:37:50;-0.50;97.00
10030;DHT22;5055;52.054;8.524;2024-01-07T10:40:19;-0.50;97.00
10030;DHT22;5055;52.054;8.524;2024-01-07T10:42:48;-0.50;97.00
10030;DHT22;5055;52.054;8.524;2024-01-07T10:45:18;-0.50;97.00
10030;DHT22;5055;52.054;8.524;2024-01-07T10:47:49;-0.50;97.00
10030;DHT22;5055;52.054;8.524;2024-01-07T10:50:19;-0.40;97.00
10030;DHT22;5055;52.054;8.524;2024-01-07T10:52:50;-0.40;97.00
10030;DHT22;5055;52.054;8.524;2024-01-07T10:55:20;-0.40;97.00
10030;DHT22;5055;52.054;8.524;2024-01-07T10:57:51;-0.40;97.00
10030;DHT22;5055;52.054;8.524;2024-01-07T11:00:22;-0.40;97.00
10030;DHT22;5055;52.054;8.524;2024-01-07T11:02:59;-0.30;97.00
10030;DHT22;5055;52.054;8.524;2024-01-07T11:05:37;-0.30;97.00
10030;DHT22;5055;52.054;8.524;2024-01-07T11:08:13;-0.30;97.00
10030;DHT22;5055;52.054;8.524;2024-01-07T11:10:48;-0.30;97.00
10030;DHT22;5055;52.054;8.524;2024-01-07T11:13:32;-0.30;97.00
10030;DHT22;5055;52.054;8.524;2024-01-07T11:16:02;-0.30;97.00
10030;DHT22;5055;52.054;8.524;2024-01-07T11:18:32;-0.30;97.00
10030;DHT22;5055;52.054;8.524;2024-01-07T11:21:04;-0.20;97.00
10030;DHT22;5055;52.054;8.524;2024-01-07T11:23:34;-0.20;97.00
10030;DHT22;5055;52.054;8.524;2024-01-07T11:26:05;-0.20;97.00
10030;DHT22;5055;52.054;8.524;2024-01-07T11:28:46;-0.10;97.00
10030;DHT22;5055;52.054;8.524;2024-01-07T11:31:17;-0.10;97.00
10030;DHT22;5055;52.054;8.524;2024-01-07T11:33:47;-0.10;97.00
10030;DHT22;5055;52.054;8.524;2024-01-07T11:36:18;-0.10;97.00
10030;DHT22;5055;52.054;8.524;2024-01-07T11:38:49;0.00;97.00
10030;DHT22;5055;52.054;8.524;2024-01-07T11:41:21;0.00;97.00
10030;DHT22;5055;52.054;8.524;2024-01-07T11:43:54;0.00;97.00
10030;DHT22;5055;52.054;8.524;2024-01-07T11:46:23;-0.10;97.00
10030;DHT22;5055;52.054;8.524;2024-01-07T11:48:53;0.00;97.00
10030;DHT22;5055;52.054;8.524;2024-01-07T11:51:27;0.00;97.00
10030;DHT22;5055;52.054;8.524;2024-01-07T11:53:59;0.00;97.00
10030;DHT22;5055;52.054;8.524;2024-01-07T11:56:28;0.10;97.00
10030;DHT22;5055;52.054;8.524;2024-01-07T11:58:56;0.10;97.00
10030;DHT22;5055;52.054;8.524;2024-01-07T12:01:25;0.10;97.00
10030;DHT22;5055;52.054;8.524;2024-01-07T12:03:54;0.10;97.00
10030;DHT22;5055;52.054;8.524;2024-01-07T12:06:23;0.10;97.00
10030;DHT22;5055;52.054;8.524;2024-01-07T12:08:54;0.10;97.00
10030;DHT22;5055;52.054;8.524;2024-01-07T12:11:22;0.10;97.00
10030;DHT22;5055;52.054;8.524;2024-01-07T12:13:51;0.10;97.00
10030;DHT22;5055;52.054;8.524;2024-01-07T12:16:20;0.00;97.00
10030;DHT22;5055;52.054;8.524;2024-01-07T12:18:49;0.00;97.00
10030;DHT22;5055;52.054;8.524;2024-01-07T12:21:19;0.00;97.00
10030;DHT22;5055;52.054;8.524;2024-01-07T12:23:50;0.10;97.00
10030;DHT22;5055;52.054;8.524;2024-01-07T12:26:21;0.10;97.00
10030;DHT22;5055;52.054;8.524;2024-01-07T12:28:54;0.00;97.00
10030;DHT22;5055;52.054;8.524;2024-01-07T12:31:24;0.00;97.00
10030;DHT22;5055;52.054;8.524;2024-01-07T12:33:54;0.00;97.00
10030;DHT22;5055;52.054;8.524;2024-01-07T12:36:24;0.00;97.00
10030;DHT22;5055;52.054;8.524;2024-01-07T12:38:53;0.00;97.00
10030;DHT22;5055;52.054;8.524;2024-01-07T12:41:23;-0.10;97.00
10030;DHT22;5055;52.054;8.524;2024-01-07T12:43:52;-0.10;97.00
10030;DHT22;5055;52.054;8.524;2024-01-07T12:46:21;-0.10;97.00
10030;DHT22;5055;52.054;8.524;2024-01-07T12:48:50;-0.10;97.00
10030;DHT22;5055;52.054;8.524;2024-01-07T12:51:18;-0.10;97.00
10030;DHT22;5055;52.054;8.524;2024-01-07T12:53:50;0.00;97.00
10030;DHT22;5055;52.054;8.524;2024-01-07T12:56:19;0.00;97.00
10030;DHT22;5055;52.054;8.524;2024-01-07T12:58:50;0.00;97.00
10030;DHT22;5055;52.054;8.524;2024-01-07T13:01:19;0.00;97.00
10030;DHT22;5055;52.054;8.524;2024-01-07T13:03:48;0.00;97.00
10030;DHT22;5055;52.054;8.524;2024-01-07T13:06:17;0.00;97.00
10030;DHT22;5055;52.054;8.524;2024-01-07T13:08:45;0.00;97.00
10030;DHT22;5055;52.054;8.524;2024-01-07T13:11:14;0.00;97.00
10030;DHT22;5055;52.054;8.524;2024-01-07T13:13:43;0.00;97.00
10030;DHT22;5055;52.054;8.524;2024-01-07T13:16:13;0.10;97.00
10030;DHT22;5055;52.054;8.524;2024-01-07T13:18:42;0.10;97.00
10030;DHT22;5055;52.054;8.524;2024-01-07T13:21:10;0.10;97.00
10030;DHT22;5055;52.054;8.524;2024-01-07T13:23:39;0.10;97.00
10030;DHT22;5055;52.054;8.524;2024-01-07T13:26:11;0.00;97.00
10030;DHT22;5055;52.054;8.524;2024-01-07T13:28:39;0.00;97.00
10030;DHT22;5055;52.054;8.524;2024-01-07T13:31:08;0.10;97.00
10030;DHT22;5055;52.054;8.524;2024-01-07T13:33:40;0.10;97.00
10030;DHT22;5055;52.054;8.524;2024-01-07T13:36:09;0.00;97.00
10030;DHT22;5055;52.054;8.524;2024-01-07T13:38:39;0.00;97.00
10030;DHT22;5055;52.054;8.524;2024-01-07T13:41:11;0.00;97.00
10030;DHT22;5055;52.054;8.524;2024-01-07T13:43:41;0.00;97.00
10030;DHT22;5055;52.054;8.524;2024-01-07T13:46:09;0.00;97.00
10030;DHT22;5055;52.054;8.524;2024-01-07T13:48:39;0.00;97.00
10030;DHT22;5055;52.054;8.524;2024-01-07T13:51:09;0.00;97.00
10030;DHT22;5055;52.054;8.524;2024-01-07T13:53:37;0.00;97.00
10030;DHT22;5055;52.054;8.524;2024-01-07T13:56:06;0.00;97.00
10030;DHT22;5055;52.054;8.524;2024-01-07T13:58:35;0.10;97.00
10030;DHT22;5055;52.054;8.524;2024-01-07T14:01:03;0.00;97.00
10030;DHT22;5055;52.054;8.524;2024-01-07T14:03:32;0.00;97.00
10030;DHT22;5055;52.054;8.524;2024-01-07T14:06:02;0.00;97.00
10030;DHT22;5055;52.054;8.524;2024-01-07T14:08:30;0.00;97.00
10030;DHT22;5055;52.054;8.524;2024-01-07T14:11:00;0.00;97.00
10030;DHT22;5055;52.054;8.524;2024-01-07T14:13:28;0.00;97.00
10030;DHT22;5055;52.054;8.524;2024-01-07T14:15:56;0.00;97.00
10030;DHT22;5055;52.054;8.524;2024-01-07T14:18:25;-0.10;97.00
10030;DHT22;5055;52.054;8.524;2024-01-07T14:20:53;-0.10;97.00
10030;DHT22;5055;52.054;8.524;2024-01-07T14:23:23;-0.10;97.00
10030;DHT22;5055;52.054;8.524;2024-01-07T14:25:51;-0.10;97.00
10030;DHT22;5055;52.054;8.524;2024-01-07T14:28:20;-0.10;97.00
10030;DHT22;5055;52.054;8.524;2024-01-07T14:30:48;-0.10;97.00
10030;DHT22;5055;52.054;8.524;2024-01-07T14:33:17;-0.10;97.00
10030;DHT22;5055;52.054;8.524;2024-01-07T14:35:46;-0.10;97.00
10030;DHT22;5055;52.054;8.524;2024-01-07T14:38:14;-0.10;97.00
10030;DHT22;5055;52.054;8.524;2024-01-07T14:40:44;-0.10;97.00
10030;DHT22;5055;52.054;8.524;2024-01-07T14:43:13;-0.10;97.00
10030;DHT22;5055;52.054;8.524;2024-01-07T14:45:42;-0.10;97.00
10030;DHT22;5055;52.054;8.524;2024-01-07T14:48:11;-0.10;97.00
10030;DHT22;5055;52.054;8.524;2024-01-07T14:50:41;-0.10;97.00
10030;DHT22;5055;52.054;8.524;2024-01-07T14:53:14;0.00;97.00
10030;DHT22;5055;52.054;8.524;2024-01-07T14:55:44;-0.10;97.00
10030;DHT22;5055;52.054;8.524;2024-01-07T14:58:13;-0.10;97.00
10030;DHT22;5055;52.054;8.524;2024-01-07T15:00:42;-0.10;97.00
10030;DHT22;5055;52.054;8.524;2024-01-07T15:03:10;-0.10;97.00
10030;DHT22;5055;52.054;8.524;2024-01-07T15:05:38;-0.10;97.00
10030;DHT22;5055;52.054;8.524;2024-01-07T15:08:08;-0.20;97.00
10030;DHT22;5055;52.054;8.524;2024-01-07T15:10:39;-0.20;97.00
10030;DHT22;5055;52.054;8.524;2024-01-07T15:13:09;-0.20;97.00
10030;DHT22;5055;52.054;8.524;2024-01-07T15:15:46;-0.30;97.00
10030;DHT22;5055;52.054;8.524;2024-01-07T15:18:14;-0.30;97.00
10030;DHT22;5055;52.054;8.524;2024-01-07T15:20:42;-0.40;97.00
10030;DHT22;5055;52.054;8.524;2024-01-07T15:23:11;-0.40;97.00
10030;DHT22;5055;52.054;8.524;2024-01-07T15:25:39;-0.50;97.00
10030;DHT22;5055;52.054;8.524;2024-01-07T15:28:08;-0.50;97.00
10030;DHT22;5055;52.054;8.524;2024-01-07T15:30:37;-0.50;97.00
10030;DHT22;5055;52.054;8.524;2024-01-07T15:33:05;-0.60;97.00
10030;DHT22;5055;52.054;8.524;2024-01-07T15:35:33;-0.60;97.00
10030;DHT22;5055;52.054;8.524;2024-01-07T15:38:01;-0.60;97.00
10030;DHT22;5055;52.054;8.524;2024-01-07T15:40:30;-0.70;97.00
10030;DHT22;5055;52.054;8.524;2024-01-07T15:42:58;-0.80;97.00
10030;DHT22;5055;52.054;8.524;2024-01-07T15:45:28;-0.80;97.00
10030;DHT22;5055;52.054;8.524;2024-01-07T15:47:57;-0.90;97.00
10030;DHT22;5055;52.054;8.524;2024-01-07T15:50:25;-0.90;97.00
10030;DHT22;5055;52.054;8.524;2024-01-07T15:52:54;-0.90;97.00
10030;DHT22;5055;52.054;8.524;2024-01-07T15:55:24;-1.00;97.00
10030;DHT22;5055;52.054;8.524;2024-01-07T15:57:53;-1.00;97.00
10030;DHT22;5055;52.054;8.524;2024-01-07T16:00:22;-1.00;97.00
10030;DHT22;5055;52.054;8.524;2024-01-07T16:02:51;-0.90;97.00
10030;DHT22;5055;52.054;8.524;2024-01-07T16:05:21;-0.90;97.00